Time;durP1;ratioP1;P1;durP2;ratioP2;P2;SDS_P1;SDS_P2;PMS_P1;PMS_P2;Temp;Humidity;BMP_temperature;BMP_pressure;BME280_temperature;BME280_humidity;BME280_pressure;Samples;Min_cycle;Max_cycle;Signal;HPM_P1;HPM_P2
2021/06/11 00:01:51;;;;;;;7.33;4.47;;;;;;;16.14;71.94;100135.58;125247;1102;104175;-82
2021/06/11 00:04:22;;;;;;;9.50;5.20;;;;;;;16.11;72.52;100128.52;125297;1099;104219;-82
2021/06/11 00:06:52;;;;;;;11.47;4.83;;;;;;;16.10;71.75;100126.73;126238;1099;104185;-80
2021/06/11 00:09:22;;;;;;;9.13;4.90;;;;;;;16.07;72.22;100124.06;126297;1099;104136;-80
2021/06/11 00:11:52;;;;;;;8.67;4.70;;;;;;;16.04;71.74;100129.34;126264;1099;104667;-80
2021/06/11 00:14:22;;;;;;;10.30;5.30;;;;;;;16.00;71.97;100130.17;125322;1099;104140;-81
2021/06/11 00:16:52;;;;;;;10.17;4.83;;;;;;;15.95;72.80;100126.62;126254;1099;104230;-81
2021/06/11 00:19:22;;;;;;;10.60;5.03;;;;;;;15.92;72.61;100130.11;125339;1099;104316;-81
2021/06/11 00:21:52;;;;;;;8.93;4.93;;;;;;;15.88;72.48;100125.70;125336;1099;104207;-81
2021/06/11 00:24:22;;;;;;;10.13;5.00;;;;;;;15.85;72.02;100123.02;126258;1099;104175;-80
2021/06/11 00:26:52;;;;;;;8.10;4.70;;;;;;;15.84;73.09;100130.95;125263;1099;104749;-80
2021/06/11 00:29:23;;;;;;;8.77;4.80;;;;;;;15.80;72.75;100132.69;126308;1099;104150;-80
2021/06/11 00:31:53;;;;;;;10.77;5.50;;;;;;;15.77;72.31;100128.25;126286;1098;104222;-81
2021/06/11 00:34:23;;;;;;;9.30;5.00;;;;;;;15.77;72.60;100130.02;126305;1098;104618;-79
2021/06/11 00:36:53;;;;;;;9.03;4.87;;;;;;;15.75;72.41;100127.33;126289;1099;104168;-82
2021/06/11 00:39:23;;;;;;;10.13;5.37;;;;;;;15.75;72.62;100122.04;126296;1099;104191;-80
2021/06/11 00:41:53;;;;;;;11.70;5.50;;;;;;;15.76;72.69;100115.85;126306;1099;104149;-81
2021/06/11 00:44:23;;;;;;;9.20;5.23;;;;;;;15.75;72.85;100119.39;125263;1099;104307;-81
2021/06/11 00:46:53;;;;;;;11.93;5.30;;;;;;;15.73;72.73;100121.11;126330;1098;104271;-81
2021/06/11 00:49:23;;;;;;;9.77;5.23;;;;;;;15.70;72.65;100125.50;126231;1099;104179;-81
2021/06/11 00:51:54;;;;;;;7.83;4.97;;;;;;;15.67;73.14;100126.34;126310;1099;104150;-81
2021/06/11 00:54:25;;;;;;;8.33;4.93;;;;;;;15.65;73.43;100128.11;126298;1099;104232;-81
2021/06/11 00:56:55;;;;;;;11.57;5.13;;;;;;;15.60;72.70;100129.83;125304;1099;104179;-80
2021/06/11 00:59:27;;;;;;;10.80;5.20;;;;;;;15.57;73.78;100120.09;125342;1099;104144;-81
2021/06/11 01:01:57;;;;;;;9.80;4.63;;;;;;;15.56;73.74;100123.61;126268;1099;104160;-80
2021/06/11 01:04:27;;;;;;;8.90;5.00;;;;;;;15.54;73.17;100122.72;126350;1099;104144;-81
2021/06/11 01:06:57;;;;;;;11.07;5.20;;;;;;;15.52;73.48;100118.27;125351;1099;104264;-80
2021/06/11 01:09:28;;;;;;;10.80;5.40;;;;;;;15.49;72.82;100118.24;126229;1099;104192;-82
2021/06/11 01:11:58;;;;;;;11.87;5.10;;;;;;;15.45;73.98;100115.56;125305;1099;104136;-82
2021/06/11 01:14:29;;;;;;;9.57;5.03;;;;;;;15.44;73.06;100124.39;125326;1099;104137;-81
2021/06/11 01:17:00;;;;;;;11.43;5.33;;;;;;;15.41;73.30;100121.72;126275;1099;104252;-81
2021/06/11 01:19:33;;;;;;;12.23;5.50;;;;;;;15.40;73.26;100121.70;126280;1099;104217;-82
2021/06/11 01:22:09;;;;;;;10.50;5.30;;;;;;;15.38;73.26;100123.42;125203;1099;105740;-81
2021/06/11 01:24:52;;;;;;;11.80;5.53;;;;;;;15.36;73.61;100131.34;126282;1099;104706;-81
2021/06/11 01:27:23;;;;;;;9.73;5.10;;;;;;;15.33;73.86;100120.73;125276;1099;104290;-81
2021/06/11 01:29:57;;;;;;;10.77;5.37;;;;;;;15.31;73.37;100129.54;126266;1099;104139;-81
2021/06/11 01:32:27;;;;;;;12.70;6.35;;;;;;;15.28;73.48;100133.02;126331;1099;104159;-81
2021/06/11 01:34:58;;;;;;;13.23;5.80;;;;;;;15.25;74.39;100127.70;126296;1097;104166;-81
2021/06/11 01:37:33;;;;;;;11.37;5.77;;;;;;;15.23;74.58;100134.74;126242;1099;104219;-80
2021/06/11 01:40:09;;;;;;;13.27;5.90;;;;;;;15.20;74.36;100135.59;126260;1099;104615;-80
2021/06/11 01:42:42;;;;;;;13.10;6.40;;;;;;;15.18;73.73;100139.98;126344;1099;104181;-81
2021/06/11 01:45:14;;;;;;;10.60;6.30;;;;;;;15.16;74.03;100136.44;126293;1099;104343;-81
2021/06/11 01:47:48;;;;;;;11.20;5.83;;;;;;;15.15;74.69;100146.99;126268;1099;104172;-81
2021/06/11 01:50:22;;;;;;;9.27;5.90;;;;;;;15.13;74.90;100140.78;126265;1099;103980;-80
2021/06/11 01:52:52;;;;;;;;;;;;;;;15.12;74.72;100136.39;126295;1099;104175;-81
2021/06/11 01:55:24;;;;;;;14.17;6.10;;;;;;;15.09;74.58;100138.11;126340;1099;104139;-81
2021/06/11 01:57:55;;;;;;;13.00;6.80;;;;;;;15.07;74.93;100133.70;126286;1099;104261;-81
2021/06/11 02:00:26;;;;;;;16.57;7.00;;;;;;;15.04;74.71;100129.25;126220;1099;104179;-80
2021/06/11 02:02:58;;;;;;;14.50;6.53;;;;;;;15.04;74.92;100123.09;125390;1099;104278;-79
2021/06/11 02:05:28;;;;;;;13.40;7.30;;;;;;;15.04;74.63;100120.45;125308;1099;104165;-81
2021/06/11 02:07:59;;;;;;;13.80;7.20;;;;;;;15.02;75.02;100120.42;126278;1099;104146;-80
2021/06/11 02:10:31;;;;;;;15.00;7.30;;;;;;;15.02;75.22;100116.88;125876;1099;104242;-80
2021/06/11 02:13:02;;;;;;;12.90;6.73;;;;;;;15.01;74.67;100116.00;126306;1099;104374;-81
2021/06/11 02:15:32;;;;;;;13.53;7.40;;;;;;;15.00;74.86;100108.93;126215;1099;104140;-80
2021/06/11 02:18:03;;;;;;;13.73;7.47;;;;;;;15.01;75.10;100117.77;126296;1099;104277;-80
2021/06/11 02:20:34;;;;;;;14.27;7.27;;;;;;;15.01;74.53;100118.64;126274;1099;104146;-79
2021/06/11 02:23:05;;;;;;;15.00;7.43;;;;;;;15.01;75.45;100121.28;125514;1099;104156;-80
2021/06/11 02:25:36;;;;;;;13.10;6.90;;;;;;;15.03;75.17;100123.95;126273;1099;104142;-81
2021/06/11 02:28:07;;;;;;;17.23;7.40;;;;;;;15.03;75.55;100122.18;125503;1099;104194;-80
2021/06/11 02:30:38;;;;;;;17.37;7.50;;;;;;;15.02;75.55;100120.42;125331;1099;104213;-81
2021/06/11 02:33:09;;;;;;;15.90;7.60;;;;;;;15.03;75.75;100116.02;125341;1099;104286;-80
2021/06/11 02:35:39;;;;;;;14.75;7.15;;;;;;;15.03;75.14;100121.30;126306;1098;104172;-80
2021/06/11 02:38:09;;;;;;;14.27;7.27;;;;;;;15.03;75.54;100121.30;125306;1099;104156;-80
2021/06/11 02:40:39;;;;;;;11.37;6.83;;;;;;;15.05;75.80;100122.20;125193;1099;104156;-80
2021/06/11 02:43:14;;;;;;;12.60;7.03;;;;;;;15.07;75.75;100124.00;125316;1099;104264;-81
2021/06/11 02:45:49;;;;;;;13.33;7.30;;;;;;;15.10;75.32;100131.09;125408;1099;104140;-81
2021/06/11 02:48:25;;;;;;;13.40;6.93;;;;;;;15.12;75.47;100131.10;125292;1099;104297;-81
2021/06/11 02:51:02;;;;;;;13.57;7.23;;;;;;;15.13;75.76;100125.84;126241;1099;104887;-81
2021/06/11 02:53:35;;;;;;;14.80;7.23;;;;;;;15.16;75.69;100130.25;126320;1099;104194;-80
2021/06/11 02:56:13;;;;;;;15.08;7.55;;;;;;;15.17;75.83;100130.27;125311;1099;104769;-80
2021/06/11 02:58:48;;;;;;;12.27;6.90;;;;;;;15.18;74.87;100125.89;126309;1099;104146;-82
2021/06/11 03:01:19;;;;;;;17.87;7.30;;;;;;;15.18;75.03;100117.95;126213;1099;104337;-81
2021/06/11 03:03:51;;;;;;;14.73;7.50;;;;;;;15.19;75.93;100119.70;126274;1099;104367;-80
2021/06/11 03:06:23;;;;;;;15.57;7.03;;;;;;;15.21;75.08;100120.64;126181;1099;104147;-81
2021/06/11 03:08:56;;;;;;;12.30;7.10;;;;;;;15.23;76.06;100124.17;125321;1099;104160;-81
2021/06/11 03:11:30;;;;;;;14.90;7.47;;;;;;;15.23;76.11;100125.05;126210;1099;104188;-80
2021/06/11 03:14:01;;;;;;;13.53;6.60;;;;;;;15.27;75.84;100132.15;126158;1099;104166;-81
2021/06/11 03:16:31;;;;;;;12.83;6.33;;;;;;;15.30;75.71;100136.56;126264;1099;105348;-80
2021/06/11 03:19:06;;;;;;;13.55;7.40;;;;;;;15.33;76.15;100126.02;126323;1099;104159;-81
2021/06/11 03:21:42;;;;;;;14.73;6.93;;;;;;;15.35;75.78;100137.52;126214;1099;104288;-81
2021/06/11 03:24:20;;;;;;;14.23;7.00;;;;;;;15.39;75.24;100141.95;125383;1099;104140;-82
2021/06/11 03:26:57;;;;;;;13.53;6.47;;;;;;;15.43;75.95;100138.48;126296;1099;104249;-82
2021/06/11 03:29:32;;;;;;;14.90;7.40;;;;;;;15.49;76.28;100142.95;126243;1099;104434;-81
2021/06/11 03:32:08;;;;;;;15.17;6.60;;;;;;;15.54;75.28;100145.64;126212;1099;104301;-81
2021/06/11 03:34:42;;;;;;;11.63;6.47;;;;;;;15.59;75.88;100154.49;126281;1099;104162;-82
2021/06/11 03:37:16;;;;;;;13.33;6.80;;;;;;;15.63;75.41;100151.02;125362;1099;104146;-81
2021/06/11 03:39:47;;;;;;;;;;;;;;;15.69;76.45;100151.08;126315;1099;104226;-81
2021/06/11 03:42:18;;;;;;;16.43;6.57;;;;;;;15.73;75.99;100157.27;125383;1099;104162;-81
2021/06/11 03:44:51;;;;;;;13.77;6.80;;;;;;;15.78;75.74;100150.29;126294;1099;104147;-81
2021/06/11 03:47:23;;;;;;;14.97;7.13;;;;;;;15.81;75.97;100147.67;126266;1099;104143;-80
2021/06/11 03:49:57;;;;;;;15.73;6.60;;;;;;;15.87;75.57;100144.20;126317;1099;104168;-82
2021/06/11 03:52:31;;;;;;;13.17;6.70;;;;;;;15.91;75.78;100144.23;126231;1099;104158;-80
2021/06/11 03:55:07;;;;;;;14.43;7.20;;;;;;;15.97;75.43;100156.61;126286;1099;104294;-81
2021/06/11 03:57:39;;;;;;;16.27;7.23;;;;;;;16.04;75.47;100157.58;126325;1099;105251;-81
2021/06/11 04:00:11;;;;;;;16.50;7.37;;;;;;;16.08;75.47;100157.61;126283;1099;104140;-80
2021/06/11 04:02:41;;;;;;;17.97;7.73;;;;;;;16.12;76.21;100156.73;126193;1099;104128;-79
2021/06/11 04:05:13;;;;;;;14.37;7.13;;;;;;;16.15;76.24;100151.47;125297;1099;104262;-80
2021/06/11 04:07:51;;;;;;;14.53;7.20;;;;;;;16.22;75.91;100159.45;126234;1099;104703;-80
2021/06/11 04:10:35;;;;;;;15.13;6.57;;;;;;;16.25;75.81;100160.39;126311;1099;104248;-80
2021/06/11 04:13:13;;;;;;;15.33;6.90;;;;;;;16.31;75.37;100164.81;125310;1099;104191;-78
2021/06/11 04:15:46;;;;;;;14.17;6.93;;;;;;;16.34;75.59;100168.36;126287;1099;104143;-79
2021/06/11 04:18:20;;;;;;;15.93;7.07;;;;;;;16.39;75.99;100173.69;126173;1099;104146;-80
2021/06/11 04:20:55;;;;;;;13.13;6.97;;;;;;;16.43;75.67;100175.49;126227;1099;104136;-80
2021/06/11 04:23:30;;;;;;;14.80;7.13;;;;;;;16.47;76.12;100179.94;126236;1099;104925;-79
2021/06/11 04:26:02;;;;;;;15.73;7.00;;;;;;;16.50;75.52;100179.97;126291;1099;104188;-79
2021/06/11 04:28:34;;;;;;;13.30;6.90;;;;;;;16.54;75.43;100175.56;125245;1101;104597;-78
2021/06/11 04:31:05;;;;;;;13.53;7.30;;;;;;;16.57;75.70;100178.23;125290;1102;104368;-79
2021/06/11 04:33:36;;;;;;;16.97;7.07;;;;;;;16.60;76.08;100169.43;125199;1102;104300;-80
2021/06/11 04:36:08;;;;;;;15.77;6.43;;;;;;;16.67;75.52;100168.56;125287;1100;104316;-80
2021/06/11 04:38:54;;;;;;;13.90;7.23;;;;;;;16.71;75.45;100167.72;125209;1102;104770;-80
2021/06/11 04:41:25;;;;;;;14.03;6.37;;;;;;;16.77;75.79;100173.05;125249;1102;104162;-79
2021/06/11 04:43:59;;;;;;;16.30;7.20;;;;;;;16.83;75.75;100170.43;125179;1102;104373;-80
2021/06/11 04:46:31;;;;;;;14.87;7.27;;;;;;;16.88;75.52;100176.66;125207;1102;104442;-79
2021/06/11 04:49:01;;;;;;;14.35;6.70;;;;;;;16.95;75.69;100174.04;125087;1102;104174;-79
2021/06/11 04:51:32;;;;;;;13.53;7.27;;;;;;;16.99;75.85;100162.58;125211;1101;105339;-80
2021/06/11 04:54:03;;;;;;;18.60;6.73;;;;;;;17.05;75.52;100159.95;125177;1102;104232;-81
2021/06/11 04:56:34;;;;;;;14.10;7.30;;;;;;;17.07;75.80;100160.84;125265;1099;104166;-79
2021/06/11 04:59:04;;;;;;;14.67;7.00;;;;;;;17.13;75.75;100166.16;125202;1100;104412;-79
2021/06/11 05:01:34;;;;;;;14.40;6.90;;;;;;;17.19;75.62;100154.70;126241;1099;104431;-78
2021/06/11 05:04:05;;;;;;;13.33;7.03;;;;;;;17.24;75.52;100167.08;125434;1099;104136;-79
2021/06/11 05:06:36;;;;;;;14.20;7.47;;;;;;;17.29;75.41;100171.52;126170;1099;104155;-79
2021/06/11 05:09:10;;;;;;;15.17;7.43;;;;;;;17.32;75.45;100171.53;126200;1099;104194;-79
2021/06/11 05:11:40;;;;;;;17.87;7.20;;;;;;;17.36;75.64;100171.55;126216;1099;104159;-80
2021/06/11 05:14:11;;;;;;;14.23;6.73;;;;;;;17.41;75.51;100168.91;125778;1099;104213;-78
2021/06/11 05:16:41;;;;;;;18.10;7.33;;;;;;;17.43;75.41;100169.78;126043;1099;104168;-78
2021/06/11 05:19:14;;;;;;;13.47;7.07;;;;;;;17.45;75.16;100167.13;126077;1099;104300;-78
2021/06/11 05:21:44;;;;;;;13.70;6.65;;;;;;;17.49;75.39;100175.10;126139;1099;104245;-78
2021/06/11 05:24:16;;;;;;;16.87;7.30;;;;;;;17.55;75.12;100182.20;126020;1099;104411;-78
2021/06/11 05:26:50;;;;;;;12.03;5.93;;;;;;;17.59;75.08;100182.21;125330;1099;104313;-78
2021/06/11 05:29:25;;;;;;;15.37;6.73;;;;;;;17.65;75.02;100185.75;126165;1099;104137;-80
2021/06/11 05:31:58;;;;;;;13.90;6.70;;;;;;;17.71;75.26;100185.76;126241;1099;104242;-78
2021/06/11 05:34:31;;;;;;;16.60;7.00;;;;;;;17.76;75.10;100190.20;126212;1099;104139;-79
2021/06/11 05:37:19;;;;;;;18.03;7.33;;;;;;;17.82;75.32;100191.95;126202;1099;103983;-78
2021/06/11 05:40:04;;;;;;;15.90;6.90;;;;;;;17.91;75.26;100193.78;125276;1099;104197;-78
2021/06/11 05:42:39;;;;;;;13.67;6.70;;;;;;;17.97;75.09;100204.41;125232;1102;104152;-79
2021/06/11 05:45:20;;;;;;;15.15;6.47;;;;;;;18.02;74.98;100196.44;126067;1099;104140;-78
2021/06/11 05:48:00;;;;;;;14.20;6.80;;;;;;;18.10;75.20;100205.28;125298;1099;104137;-76
2021/06/11 05:50:34;;;;;;;13.20;6.47;;;;;;;18.15;75.06;100198.20;126113;1099;104297;-76
2021/06/11 05:53:08;;;;;;;13.17;6.37;;;;;;;18.25;74.84;100194.66;125981;1099;104178;-78
2021/06/11 05:55:40;;;;;;;16.37;6.97;;;;;;;18.37;75.13;100207.06;125891;1099;104162;-78
2021/06/11 05:58:13;;;;;;;16.83;6.40;;;;;;;18.48;74.78;100204.36;125249;1099;104160;-77
2021/06/11 06:00:43;;;;;;;;;;;;;;;18.57;74.87;100201.69;126206;1099;104189;-77
2021/06/11 06:03:17;;;;;;;23.53;7.03;;;;;;;18.66;74.60;100206.12;126146;1099;104178;-79
2021/06/11 06:05:51;;;;;;;12.93;6.50;;;;;;;18.78;74.48;100202.55;125318;1099;104181;-79
2021/06/11 06:08:25;;;;;;;14.40;6.63;;;;;;;18.92;74.36;100197.23;126220;1099;104146;-78
2021/06/11 06:10:58;;;;;;;15.68;6.83;;;;;;;19.03;74.22;100203.39;125113;1102;105912;-78
2021/06/11 06:13:31;;;;;;;13.18;6.97;;;;;;;19.12;74.96;100203.36;125156;1102;104172;-77
2021/06/11 06:16:03;;;;;;;18.10;7.30;;;;;;;19.22;74.61;100202.41;125154;1102;108293;-76
2021/06/11 06:18:35;;;;;;;20.43;7.37;;;;;;;19.32;74.27;100207.69;125189;1102;104417;-76
2021/06/11 06:21:08;;;;;;;14.55;7.00;;;;;;;19.45;73.92;100206.74;125073;1102;104596;-79
2021/06/11 06:23:45;;;;;;;16.90;7.20;;;;;;;19.53;74.26;100206.70;125174;1102;104290;-80
2021/06/11 06:26:18;;;;;;;13.03;6.40;;;;;;;19.65;73.70;100211.05;125071;1101;118526;-75
2021/06/11 06:28:51;;;;;;;13.33;6.43;;;;;;;19.70;74.07;100203.94;125252;1099;104415;-77
2021/06/11 06:31:24;;;;;;;14.58;6.60;;;;;;;19.76;73.36;100190.59;125225;1099;104223;-77
2021/06/11 06:34:06;;;;;;;12.17;6.10;;;;;;;19.77;73.28;100207.47;125203;1099;104204;-76
2021/06/11 06:36:44;;;;;;;13.33;6.70;;;;;;;19.76;73.51;100209.22;125931;1099;104172;-78
2021/06/11 06:39:20;;;;;;;13.57;6.73;;;;;;;19.75;73.07;100200.33;125879;1099;104264;-77
2021/06/11 06:41:53;;;;;;;14.33;6.65;;;;;;;19.78;73.20;100201.27;125831;1099;104182;-77
2021/06/11 06:44:28;;;;;;;10.20;5.73;;;;;;;19.87;72.88;100206.52;125912;1098;104252;-77
2021/06/11 06:46:59;;;;;;;13.07;6.13;;;;;;;19.96;73.63;100209.13;126000;1099;104149;-75
2021/06/11 06:49:31;;;;;;;15.20;5.87;;;;;;;20.06;73.33;100210.80;126118;1099;104149;-76
2021/06/11 06:52:01;;;;;;;12.47;5.70;;;;;;;20.16;73.54;100208.06;126046;1099;104149;-77
2021/06/11 06:54:34;;;;;;;14.73;6.00;;;;;;;20.25;72.73;100207.98;125149;1102;104242;-78
2021/06/11 06:57:06;;;;;;;12.58;6.35;;;;;;;20.33;73.42;100211.45;126058;1099;104166;-77
2021/06/11 06:59:41;;;;;;;11.53;6.20;;;;;;;20.43;72.21;100222.94;126121;1099;104175;-78
2021/06/11 07:02:22;;;;;;;12.67;6.43;;;;;;;20.56;72.22;100216.58;126097;1099;104181;-77
2021/06/11 07:05:02;;;;;;;8.30;5.80;;;;;;;20.71;72.65;100220.01;125237;1099;105608;-79
2021/06/11 07:07:33;;;;;;;11.73;5.77;;;;;;;20.74;72.09;100218.22;125204;1099;104149;-78
2021/06/11 07:10:04;;;;;;;13.40;6.30;;;;;;;20.85;71.77;100214.53;126021;1099;104144;-77
2021/06/11 07:12:36;;;;;;;8.97;5.30;;;;;;;20.95;72.11;100211.75;125882;1099;104271;-77
2021/06/11 07:15:09;;;;;;;14.53;6.30;;;;;;;21.12;71.46;100214.22;125044;1099;105726;-77
2021/06/11 07:17:41;;;;;;;9.10;5.73;;;;;;;21.31;71.85;100216.66;126020;1099;104150;-75
2021/06/11 07:20:35;;;;;;;12.40;6.13;;;;;;;21.49;71.54;100218.24;126053;1098;104165;-76
2021/06/11 07:23:23;;;;;;;11.70;6.30;;;;;;;21.61;71.68;100211.83;125376;1099;104175;-77
2021/06/11 07:25:58;;;;;;;12.30;6.10;;;;;;;21.80;70.53;100205.33;125346;1099;102231;-76
2021/06/11 07:28:30;;;;;;;12.90;5.50;;;;;;;22.04;71.20;100212.05;126063;1099;104171;-76
2021/06/11 07:31:02;;;;;;;13.13;5.97;;;;;;;22.22;71.21;100208.21;125993;1099;104230;-76
2021/06/11 07:33:33;;;;;;;14.50;6.13;;;;;;;22.35;70.56;100205.36;126140;1099;104133;-77
2021/06/11 07:36:06;;;;;;;13.53;5.97;;;;;;;22.44;70.03;100211.42;126171;1099;104137;-78
2021/06/11 07:38:39;;;;;;;14.13;5.90;;;;;;;22.52;70.24;100203.27;125355;1099;104165;-77
2021/06/11 07:41:09;;;;;;;15.80;5.47;;;;;;;22.74;70.23;100213.56;125343;1099;104210;-78
2021/06/11 07:43:50;;;;;;;11.77;6.00;;;;;;;22.76;69.83;100198.36;126209;1099;104277;-76
2021/06/11 07:46:21;;;;;;;10.70;5.50;;;;;;;22.76;69.14;100206.38;126090;1098;104165;-78
2021/06/11 07:48:53;;;;;;;7.07;4.83;;;;;;;22.92;69.15;100202.51;126145;1099;105060;-78
2021/06/11 07:51:28;;;;;;;14.50;5.60;;;;;;;23.10;69.15;100213.78;126062;1099;104341;-77
2021/06/11 07:54:00;;;;;;;9.70;4.60;;;;;;;23.31;67.60;100210.66;125952;1099;104268;-76
2021/06/11 07:56:34;;;;;;;11.20;5.10;;;;;;;23.61;67.29;100204.66;125897;1099;104220;-77
2021/06/11 07:59:06;;;;;;;10.20;4.90;;;;;;;23.98;66.65;100211.84;125972;1099;104307;-76
2021/06/11 08:01:39;;;;;;;10.67;5.40;;;;;;;24.04;67.23;100209.02;126048;1099;104130;-76
2021/06/11 08:04:11;;;;;;;11.80;5.50;;;;;;;23.91;66.93;100199.53;126059;1099;104185;-75
2021/06/11 08:06:46;;;;;;;9.23;4.50;;;;;;;23.86;66.76;100202.32;126061;1099;104179;-77
2021/06/11 08:09:18;;;;;;;7.60;4.43;;;;;;;23.96;66.03;100209.20;126085;1099;104263;-76
2021/06/11 08:11:50;;;;;;;8.90;4.20;;;;;;;24.17;65.36;100202.44;125982;1099;104178;-76
2021/06/11 08:14:22;;;;;;;5.57;4.00;;;;;;;24.36;63.93;100207.34;125989;1099;104189;-77
2021/06/11 08:16:52;;;;;;;7.67;4.43;;;;;;;24.63;64.81;100207.55;125939;1099;105119;-78
2021/06/11 08:19:25;;;;;;;8.00;4.53;;;;;;;24.93;64.43;100198.66;126096;1099;104258;-77
2021/06/11 08:22:00;;;;;;;7.70;4.80;;;;;;;24.99;64.31;100213.69;126168;1099;104146;-78
2021/06/11 08:24:33;;;;;;;8.40;4.67;;;;;;;24.77;62.35;100205.37;126144;1099;104245;-77
2021/06/11 08:27:09;;;;;;;7.47;4.17;;;;;;;24.74;62.66;100206.35;126018;1099;104226;-79
2021/06/11 08:29:43;;;;;;;7.80;4.13;;;;;;;24.83;61.85;100198.96;125126;1099;104197;-76
2021/06/11 08:32:15;;;;;;;6.47;4.37;;;;;;;24.84;62.49;100208.75;126158;1099;104169;-76
2021/06/11 08:34:50;;;;;;;9.20;4.53;;;;;;;24.72;62.41;100208.17;126296;1099;104200;-76
2021/06/11 08:37:23;;;;;;;8.93;4.53;;;;;;;24.40;62.40;100196.49;125944;1099;104197;-76
2021/06/11 08:39:58;;;;;;;9.80;4.70;;;;;;;24.04;62.10;100201.88;126283;1099;104150;-77
2021/06/11 08:42:30;;;;;;;8.60;4.73;;;;;;;23.88;61.68;100195.11;125955;1099;104174;-78
2021/06/11 08:45:16;;;;;;;7.13;3.80;;;;;;;23.98;61.82;100195.77;125959;1099;105496;-76
2021/06/11 08:47:54;;;;;;;7.27;4.17;;;;;;;24.16;61.69;100183.72;126011;1099;104198;-76
2021/06/11 08:50:37;;;;;;;5.70;3.60;;;;;;;24.25;61.27;100183.48;126151;1099;104136;-76
2021/06/11 08:53:11;;;;;;;5.43;3.60;;;;;;;24.37;60.82;100185.84;126065;1098;104169;-77
2021/06/11 08:56:14;;;;;;;5.27;3.77;;;;;;;24.58;59.87;100202.31;125910;1099;104187;-76
2021/06/11 08:58:50;;;;;;;6.45;4.00;;;;;;;24.63;60.45;100191.45;125988;1099;104248;-77
2021/06/11 09:01:24;;;;;;;7.50;4.20;;;;;;;24.47;60.16;100186.47;126150;1099;104139;-76
2021/06/11 09:03:59;;;;;;;8.10;4.10;;;;;;;24.50;59.75;100198.94;126081;1099;104331;-78
2021/06/11 09:06:34;;;;;;;5.70;3.60;;;;;;;24.58;59.89;100186.22;126098;1099;104139;-77
2021/06/11 09:09:10;;;;;;;8.93;4.12;;;;;;;24.75;59.87;100183.94;126055;1099;104265;-79
2021/06/11 09:11:49;;;;;;;5.40;3.63;;;;;;;24.99;59.46;100185.98;125155;1099;104188;-77
2021/06/11 09:14:22;;;;;;;4.93;3.63;;;;;;;25.17;59.15;100172.02;125918;1099;104139;-75
2021/06/11 09:16:59;;;;;;;8.83;4.28;;;;;;;25.26;59.49;100182.48;125933;1099;104147;-78
2021/06/11 09:19:30;;;;;;;4.47;3.50;;;;;;;25.23;58.14;100179.02;125410;1099;104668;-78
2021/06/11 09:22:03;;;;;;;9.87;3.90;;;;;;;25.29;57.89;100171.69;125890;1099;104229;-77
2021/06/11 09:24:38;;;;;;;8.40;3.70;;;;;;;25.36;57.86;100176.88;126045;1099;104238;-76
2021/06/11 09:27:16;;;;;;;7.07;3.60;;;;;;;25.38;57.29;100158.89;126093;1099;104137;-78
2021/06/11 09:29:53;;;;;;;7.13;3.50;;;;;;;25.37;56.87;100147.28;126135;1099;104173;-77
2021/06/11 09:32:30;;;;;;;4.70;3.40;;;;;;;25.35;56.60;100173.28;126236;1099;104140;-76
2021/06/11 09:35:03;;;;;;;;;;;;;;;25.26;55.29;100162.82;126073;1099;104166;-78
2021/06/11 09:37:40;;;;;;;5.40;3.50;;;;;;;25.21;56.36;100162.95;126137;1099;104236;-78
2021/06/11 09:40:13;;;;;;;8.93;3.10;;;;;;;25.22;56.30;100162.02;125941;1099;118572;-78
2021/06/11 09:42:48;;;;;;;4.73;3.67;;;;;;;25.31;56.04;100168.95;125975;1099;104501;-77
2021/06/11 09:45:21;;;;;;;6.70;3.53;;;;;;;25.38;55.63;100156.20;125319;1099;104239;-77
2021/06/11 09:47:55;;;;;;;5.87;3.90;;;;;;;25.47;55.96;100159.48;126197;1099;105288;-77
2021/06/11 09:50:31;;;;;;;4.37;3.62;;;;;;;25.44;55.73;100150.64;126271;1099;106504;-78
2021/06/11 09:53:04;;;;;;;10.80;3.53;;;;;;;25.23;54.90;100163.78;126074;1099;104386;-76
2021/06/11 09:55:41;;;;;;;8.75;3.00;;;;;;;25.07;54.91;100158.00;125928;1099;104185;-77
2021/06/11 09:58:20;;;;;;;4.87;3.33;;;;;;;25.08;54.33;100153.50;125979;1099;104197;-75
2021/06/11 10:00:54;;;;;;;6.37;3.50;;;;;;;25.11;54.61;100146.22;126081;1099;111883;-76
2021/06/11 10:03:29;;;;;;;8.90;3.80;;;;;;;25.23;54.63;100146.80;126114;1099;104216;-76
2021/06/11 10:06:02;;;;;;;5.13;3.97;;;;;;;25.22;54.11;100139.66;126121;1099;104171;-75
2021/06/11 10:08:43;;;;;;;8.07;3.50;;;;;;;25.10;53.54;100141.80;126057;1099;104240;-75
2021/06/11 10:11:17;;;;;;;6.13;3.50;;;;;;;25.17;53.89;100145.17;125923;1099;104302;-75
2021/06/11 10:13:46;;;;;;;;;;;;;;;25.22;53.25;100139.66;126018;1099;104206;-76
2021/06/11 10:16:44;;;;;;;4.43;3.20;;;;;;;25.28;53.88;100126.05;125948;1099;104175;-75
2021/06/11 10:19:15;;;;;;;6.13;3.20;;;;;;;25.45;53.51;100125.56;125368;1099;104165;-76
2021/06/11 10:21:48;;;;;;;3.93;3.03;;;;;;;25.58;53.30;100131.41;125962;1100;104341;-75
2021/06/11 10:24:21;;;;;;;4.95;3.25;;;;;;;25.77;53.08;100127.20;126025;1099;104252;-75
2021/06/11 10:26:51;;;;;;;6.47;3.00;;;;;;;25.79;53.43;100121.78;125957;1099;104137;-76
2021/06/11 10:29:22;;;;;;;5.60;3.80;;;;;;;25.72;52.79;100122.91;126085;1099;104201;-76
2021/06/11 10:31:53;;;;;;;4.33;3.50;;;;;;;25.62;52.22;100127.70;126067;1099;118810;-75
2021/06/11 10:34:53;;;;;;;4.57;3.50;;;;;;;25.57;52.30;100129.64;126129;1099;104319;-77
2021/06/11 10:37:36;;;;;;;8.00;3.47;;;;;;;25.56;52.00;100133.27;125979;1099;105484;-75
2021/06/11 10:40:21;;;;;;;8.53;3.60;;;;;;;25.41;51.58;100122.06;126015;1099;104174;-76
2021/06/11 10:42:52;;;;;;;4.60;3.20;;;;;;;25.39;51.07;100117.70;126261;1099;104155;-75
2021/06/11 10:45:45;;;;;;;5.23;3.20;;;;;;;25.52;51.35;100118.17;126106;1099;104237;-78
2021/06/11 10:48:21;;;;;;;4.47;3.40;;;;;;;25.69;52.20;100101.50;126137;1099;104309;-80
2021/06/11 10:51:04;;;;;;;4.63;3.37;;;;;;;25.77;51.26;100100.33;126116;1099;104290;-77
2021/06/11 10:53:42;;;;;;;6.58;3.27;;;;;;;25.67;50.83;100111.44;126070;1099;104312;-76
2021/06/11 10:56:15;;;;;;;4.60;3.63;;;;;;;25.50;51.45;100101.23;125331;1099;104226;-76
2021/06/11 10:59:36;;;;;;;5.80;3.53;;;;;;;25.47;51.05;100104.89;126011;1099;104843;-76
2021/06/11 11:02:10;;;;;;;6.00;3.57;;;;;;;25.60;50.75;100121.48;125564;1099;104287;-76
2021/06/11 11:04:50;;;;;;;4.97;3.57;;;;;;;25.68;50.60;100108.70;125149;1099;104310;-74
2021/06/11 11:07:34;;;;;;;7.07;3.60;;;;;;;25.87;51.09;100100.89;125970;1099;104166;-76
2021/06/11 11:10:04;;;;;;;;;;;;;;;25.88;50.65;100099.94;126014;1098;104276;-76
2021/06/11 11:13:00;;;;;;;6.00;3.07;;;;;;;25.78;50.39;100102.07;125115;1102;104255;-75
2021/06/11 11:15:36;;;;;;;3.97;3.20;;;;;;;25.61;50.14;100096.39;125095;1102;104681;-76
2021/06/11 11:18:10;;;;;;;4.77;3.10;;;;;;;25.40;49.71;100098.84;125131;1102;104342;-74
2021/06/11 11:20:44;;;;;;;5.77;3.30;;;;;;;25.27;50.07;100101.02;124997;1102;104239;-75
2021/06/11 11:23:21;;;;;;;7.13;3.00;;;;;;;25.21;49.58;100095.84;125159;1102;104280;-77
2021/06/11 11:25:52;;;;;;;8.83;3.60;;;;;;;25.27;49.85;100092.06;125065;1102;104200;-78
2021/06/11 11:28:29;;;;;;;7.67;3.20;;;;;;;25.38;49.95;100083.70;125070;1102;104450;-77
2021/06/11 11:31:01;;;;;;;3.80;3.17;;;;;;;25.30;49.89;100095.55;125060;1102;104255;-75
2021/06/11 11:33:33;;;;;;;4.77;2.90;;;;;;;25.23;49.69;100093.11;125101;1102;104274;-75
2021/06/11 11:36:05;;;;;;;5.47;3.00;;;;;;;25.10;49.01;100090.80;125062;1102;104191;-77
2021/06/11 11:38:36;;;;;;;4.67;3.33;;;;;;;25.18;49.34;100100.41;125111;1102;104207;-76